sensor_id;sensor_type;location;lat;lon;timestamp;temperature;humidity
42913;DHT22;50720;54.324;18.558;2022-12-07T00:02:29;2.30;99.90
42913;DHT22;50720;54.324;18.558;2022-12-07T00:05:01;2.30;99.90
42913;DHT22;50720;54.324;18.558;2022-12-07T00:07:31;2.20;99.90
42913;DHT22;50720;54.324;18.558;2022-12-07T00:10:00;2.20;99.90
42913;DHT22;50720;54.324;18.558;2022-12-07T00:12:30;2.20;99.90
42913;DHT22;50720;54.324;18.558;2022-12-07T00:15:00;2.30;99.90
42913;DHT22;50720;54.324;18.558;2022-12-07T00:17:30;2.30;99.90
42913;DHT22;50720;54.324;18.558;2022-12-07T00:20:03;2.30;99.90
42913;DHT22;50720;54.324;18.558;2022-12-07T00:22:33;2.20;99.90
42913;DHT22;50720;54.324;18.558;2022-12-07T00:25:03;2.20;99.90
42913;DHT22;50720;54.324;18.558;2022-12-07T00:27:33;2.30;99.90
42913;DHT22;50720;54.324;18.558;2022-12-07T00:30:04;2.30;99.90
42913;DHT22;50720;54.324;18.558;2022-12-07T00:32:33;2.30;99.90
42913;DHT22;50720;54.324;18.558;2022-12-07T00:35:05;2.30;99.90
42913;DHT22;50720;54.324;18.558;2022-12-07T00:37:35;2.30;99.90
42913;DHT22;50720;54.324;18.558;2022-12-07T00:40:05;2.20;99.90
42913;DHT22;50720;54.324;18.558;2022-12-07T00:42:35;2.30;99.90
42913;DHT22;50720;54.324;18.558;2022-12-07T00:45:05;2.30;99.90
42913;DHT22;50720;54.324;18.558;2022-12-07T00:47:35;2.30;99.90
42913;DHT22;50720;54.324;18.558;2022-12-07T00:50:07;2.30;99.90
42913;DHT22;50720;54.324;18.558;2022-12-07T00:52:37;2.30;99.90
42913;DHT22;50720;54.324;18.558;2022-12-07T00:55:08;2.30;99.90
42913;DHT22;50720;54.324;18.558;2022-12-07T00:57:37;2.30;99.90
42913;DHT22;50720;54.324;18.558;2022-12-07T01:00:08;2.40;99.90
42913;DHT22;50720;54.324;18.558;2022-12-07T01:02:39;2.40;99.90
42913;DHT22;50720;54.324;18.558;2022-12-07T01:05:10;2.30;99.90
42913;DHT22;50720;54.324;18.558;2022-12-07T01:07:40;2.30;99.90
42913;DHT22;50720;54.324;18.558;2022-12-07T01:10:10;2.30;99.90
42913;DHT22;50720;54.324;18.558;2022-12-07T01:12:40;2.30;99.90
42913;DHT22;50720;54.324;18.558;2022-12-07T01:15:09;2.20;99.90
42913;DHT22;50720;54.324;18.558;2022-12-07T01:17:39;2.30;99.90
42913;DHT22;50720;54.324;18.558;2022-12-07T01:20:12;2.30;99.90
42913;DHT22;50720;54.324;18.558;2022-12-07T01:22:43;2.30;99.90
42913;DHT22;50720;54.324;18.558;2022-12-07T01:25:12;2.30;99.90
42913;DHT22;50720;54.324;18.558;2022-12-07T01:27:43;2.30;99.90
42913;DHT22;50720;54.324;18.558;2022-12-07T01:30:13;2.30;99.90
42913;DHT22;50720;54.324;18.558;2022-12-07T01:32:43;2.30;99.90
42913;DHT22;50720;54.324;18.558;2022-12-07T01:35:14;2.40;99.90
42913;DHT22;50720;54.324;18.558;2022-12-07T01:37:44;2.40;99.90
42913;DHT22;50720;54.324;18.558;2022-12-07T01:40:14;2.40;99.90
42913;DHT22;50720;54.324;18.558;2022-12-07T01:42:43;2.50;99.90
42913;DHT22;50720;54.324;18.558;2022-12-07T01:45:43;2.50;99.90
42913;DHT22;50720;54.324;18.558;2022-12-07T01:48:15;2.40;99.90
42913;DHT22;50720;54.324;18.558;2022-12-07T01:50:49;2.40;99.90
42913;DHT22;50720;54.324;18.558;2022-12-07T01:53:21;2.40;99.90
42913;DHT22;50720;54.324;18.558;2022-12-07T01:55:52;2.50;99.90
42913;DHT22;50720;54.324;18.558;2022-12-07T01:58:23;2.40;99.90
42913;DHT22;50720;54.324;18.558;2022-12-07T02:00:53;2.40;99.90
42913;DHT22;50720;54.324;18.558;2022-12-07T02:03:27;2.40;99.90
42913;DHT22;50720;54.324;18.558;2022-12-07T02:06:01;2.30;99.90
42913;DHT22;50720;54.324;18.558;2022-12-07T02:08:30;2.40;99.90
42913;DHT22;50720;54.324;18.558;2022-12-07T02:11:00;2.40;99.90
42913;DHT22;50720;54.324;18.558;2022-12-07T02:13:34;2.40;99.90
42913;DHT22;50720;54.324;18.558;2022-12-07T02:16:11;2.40;99.90
42913;DHT22;50720;54.324;18.558;2022-12-07T02:18:52;2.40;99.90
42913;DHT22;50720;54.324;18.558;2022-12-07T02:21:31;2.40;99.90
42913;DHT22;50720;54.324;18.558;2022-12-07T02:24:37;2.50;99.90
42913;DHT22;50720;54.324;18.558;2022-12-07T02:30:13;2.40;99.90
42913;DHT22;50720;54.324;18.558;2022-12-07T02:32:49;2.40;99.90
42913;DHT22;50720;54.324;18.558;2022-12-07T02:35:27;2.50;99.90
42913;DHT22;50720;54.324;18.558;2022-12-07T02:38:03;2.50;99.90
42913;DHT22;50720;54.324;18.558;2022-12-07T02:40:41;2.50;99.90
42913;DHT22;50720;54.324;18.558;2022-12-07T02:43:15;2.50;99.90
42913;DHT22;50720;54.324;18.558;2022-12-07T02:45:47;2.50;99.90
42913;DHT22;50720;54.324;18.558;2022-12-07T02:48:18;2.50;99.90
42913;DHT22;50720;54.324;18.558;2022-12-07T02:50:50;2.50;99.90
42913;DHT22;50720;54.324;18.558;2022-12-07T02:53:33;2.50;99.90
42913;DHT22;50720;54.324;18.558;2022-12-07T02:56:07;2.50;99.90
42913;DHT22;50720;54.324;18.558;2022-12-07T02:58:49;2.50;99.90
42913;DHT22;50720;54.324;18.558;2022-12-07T03:01:28;2.60;99.90
42913;DHT22;50720;54.324;18.558;2022-12-07T03:04:08;2.50;99.90
42913;DHT22;50720;54.324;18.558;2022-12-07T03:06:45;2.50;99.90
42913;DHT22;50720;54.324;18.558;2022-12-07T03:09:21;2.60;99.90
42913;DHT22;50720;54.324;18.558;2022-12-07T03:12:03;2.60;99.90
42913;DHT22;50720;54.324;18.558;2022-12-07T03:14:40;2.60;99.90
42913;DHT22;50720;54.324;18.558;2022-12-07T03:17:15;2.60;99.90
42913;DHT22;50720;54.324;18.558;2022-12-07T03:19:48;2.60;99.90
42913;DHT22;50720;54.324;18.558;2022-12-07T03:22:19;2.60;99.90
42913;DHT22;50720;54.324;18.558;2022-12-07T03:24:55;2.60;99.90
42913;DHT22;50720;54.324;18.558;2022-12-07T03:27:30;2.60;99.90
42913;DHT22;50720;54.324;18.558;2022-12-07T03:30:02;2.60;99.90
42913;DHT22;50720;54.324;18.558;2022-12-07T03:32:38;2.60;99.90
42913;DHT22;50720;54.324;18.558;2022-12-07T03:35:14;2.60;99.90
42913;DHT22;50720;54.324;18.558;2022-12-07T03:37:49;2.60;99.90
42913;DHT22;50720;54.324;18.558;2022-12-07T03:40:25;2.60;99.90
42913;DHT22;50720;54.324;18.558;2022-12-07T03:42:56;2.60;99.90
42913;DHT22;50720;54.324;18.558;2022-12-07T03:45:35;2.60;99.90
42913;DHT22;50720;54.324;18.558;2022-12-07T03:48:12;2.60;99.90
42913;DHT22;50720;54.324;18.558;2022-12-07T03:50:47;2.60;99.90
42913;DHT22;50720;54.324;18.558;2022-12-07T03:53:20;2.70;99.90
42913;DHT22;50720;54.324;18.558;2022-12-07T03:55:51;2.60;99.90
42913;DHT22;50720;54.324;18.558;2022-12-07T03:58:23;2.60;99.90
42913;DHT22;50720;54.324;18.558;2022-12-07T04:00:53;2.60;99.90
42913;DHT22;50720;54.324;18.558;2022-12-07T04:03:24;2.60;99.90
42913;DHT22;50720;54.324;18.558;2022-12-07T04:05:54;2.70;99.90
42913;DHT22;50720;54.324;18.558;2022-12-07T04:08:24;2.70;99.90
42913;DHT22;50720;54.324;18.558;2022-12-07T04:10:53;2.60;99.90
42913;DHT22;50720;54.324;18.558;2022-12-07T04:13:23;2.70;99.90
42913;DHT22;50720;54.324;18.558;2022-12-07T04:15:52;2.70;99.90
42913;DHT22;50720;54.324;18.558;2022-12-07T04:18:24;2.70;99.90
42913;DHT22;50720;54.324;18.558;2022-12-07T04:20:53;2.60;99.90
42913;DHT22;50720;54.324;18.558;2022-12-07T04:23:23;2.70;99.90
42913;DHT22;50720;54.324;18.558;2022-12-07T04:25:53;2.70;99.90
42913;DHT22;50720;54.324;18.558;2022-12-07T04:28:23;2.70;99.90
42913;DHT22;50720;54.324;18.558;2022-12-07T04:30:52;2.70;99.90
42913;DHT22;50720;54.324;18.558;2022-12-07T04:33:24;2.70;99.90
42913;DHT22;50720;54.324;18.558;2022-12-07T04:35:53;2.70;99.90
42913;DHT22;50720;54.324;18.558;2022-12-07T04:38:23;2.70;99.90
42913;DHT22;50720;54.324;18.558;2022-12-07T04:40:53;2.70;99.90
42913;DHT22;50720;54.324;18.558;2022-12-07T04:43:22;2.70;99.90
42913;DHT22;50720;54.324;18.558;2022-12-07T04:45:51;2.70;99.90
42913;DHT22;50720;54.324;18.558;2022-12-07T04:48:21;2.70;99.90
42913;DHT22;50720;54.324;18.558;2022-12-07T04:50:52;2.80;99.90
42913;DHT22;50720;54.324;18.558;2022-12-07T04:53:22;2.80;99.90
42913;DHT22;50720;54.324;18.558;2022-12-07T04:55:52;2.80;99.90
42913;DHT22;50720;54.324;18.558;2022-12-07T04:58:22;2.80;99.90
42913;DHT22;50720;54.324;18.558;2022-12-07T05:00:54;2.80;99.90
42913;DHT22;50720;54.324;18.558;2022-12-07T05:03:24;2.80;99.90
42913;DHT22;50720;54.324;18.558;2022-12-07T05:05:55;2.80;99.90
42913;DHT22;50720;54.324;18.558;2022-12-07T05:08:25;2.90;99.90
42913;DHT22;50720;54.324;18.558;2022-12-07T05:10:54;2.90;99.90
42913;DHT22;50720;54.324;18.558;2022-12-07T05:13:24;3.00;99.90
42913;DHT22;50720;54.324;18.558;2022-12-07T05:15:53;2.90;99.90
42913;DHT22;50720;54.324;18.558;2022-12-07T05:18:24;3.00;99.90
42913;DHT22;50720;54.324;18.558;2022-12-07T05:20:55;3.00;99.90
42913;DHT22;50720;54.324;18.558;2022-12-07T05:23:25;3.00;99.90
42913;DHT22;50720;54.324;18.558;2022-12-07T05:25:54;3.00;99.90
42913;DHT22;50720;54.324;18.558;2022-12-07T05:28:24;3.00;99.90
42913;DHT22;50720;54.324;18.558;2022-12-07T05:30:54;3.10;99.90
42913;DHT22;50720;54.324;18.558;2022-12-07T05:33:26;3.00;99.90
42913;DHT22;50720;54.324;18.558;2022-12-07T05:35:57;3.10;99.90
42913;DHT22;50720;54.324;18.558;2022-12-07T05:38:33;3.10;99.90
42913;DHT22;50720;54.324;18.558;2022-12-07T05:41:04;3.10;99.90
42913;DHT22;50720;54.324;18.558;2022-12-07T05:43:35;3.10;99.90
42913;DHT22;50720;54.324;18.558;2022-12-07T05:46:04;3.10;99.90
42913;DHT22;50720;54.324;18.558;2022-12-07T05:48:34;3.10;99.90
42913;DHT22;50720;54.324;18.558;2022-12-07T05:51:06;3.10;99.90
42913;DHT22;50720;54.324;18.558;2022-12-07T05:53:35;3.10;99.90
42913;DHT22;50720;54.324;18.558;2022-12-07T05:56:05;3.10;99.90
42913;DHT22;50720;54.324;18.558;2022-12-07T05:58:35;3.10;99.90
42913;DHT22;50720;54.324;18.558;2022-12-07T06:01:22;3.10;99.90
42913;DHT22;50720;54.324;18.558;2022-12-07T06:03:52;3.10;99.90
42913;DHT22;50720;54.324;18.558;2022-12-07T06:06:23;3.10;99.90
42913;DHT22;50720;54.324;18.558;2022-12-07T06:08:53;3.10;99.90
42913;DHT22;50720;54.324;18.558;2022-12-07T06:11:23;3.10;99.90
42913;DHT22;50720;54.324;18.558;2022-12-07T06:14:10;3.10;99.90
42913;DHT22;50720;54.324;18.558;2022-12-07T06:16:40;3.10;99.90
42913;DHT22;50720;54.324;18.558;2022-12-07T06:19:11;3.00;99.90
42913;DHT22;50720;54.324;18.558;2022-12-07T06:21:42;3.00;99.90
42913;DHT22;50720;54.324;18.558;2022-12-07T06:24:12;3.00;99.90
42913;DHT22;50720;54.324;18.558;2022-12-07T06:26:42;2.90;99.90
42913;DHT22;50720;54.324;18.558;2022-12-07T06:29:13;2.90;99.90
42913;DHT22;50720;54.324;18.558;2022-12-07T06:31:42;2.80;99.90
42913;DHT22;50720;54.324;18.558;2022-12-07T06:34:15;2.90;99.90
42913;DHT22;50720;54.324;18.558;2022-12-07T06:36:46;2.80;99.90
42913;DHT22;50720;54.324;18.558;2022-12-07T06:39:19;2.80;99.90
42913;DHT22;50720;54.324;18.558;2022-12-07T06:41:50;2.80;99.90
42913;DHT22;50720;54.324;18.558;2022-12-07T06:44:22;2.70;99.90
42913;DHT22;50720;54.324;18.558;2022-12-07T06:46:52;2.70;99.90
42913;DHT22;50720;54.324;18.558;2022-12-07T06:49:42;2.70;99.90
42913;DHT22;50720;54.324;18.558;2022-12-07T06:52:13;2.70;99.90
42913;DHT22;50720;54.324;18.558;2022-12-07T06:54:43;2.60;99.90
42913;DHT22;50720;54.324;18.558;2022-12-07T06:57:13;2.70;99.90
42913;DHT22;50720;54.324;18.558;2022-12-07T06:59:43;2.70;99.90
42913;DHT22;50720;54.324;18.558;2022-12-07T07:02:12;2.60;99.90
42913;DHT22;50720;54.324;18.558;2022-12-07T07:04:42;2.60;99.90
42913;DHT22;50720;54.324;18.558;2022-12-07T07:07:13;2.70;99.90
42913;DHT22;50720;54.324;18.558;2022-12-07T07:09:43;2.70;99.90
42913;DHT22;50720;54.324;18.558;2022-12-07T07:12:12;2.70;99.90
42913;DHT22;50720;54.324;18.558;2022-12-07T07:14:42;2.70;99.90
42913;DHT22;50720;54.324;18.558;2022-12-07T07:17:12;2.70;99.90
42913;DHT22;50720;54.324;18.558;2022-12-07T07:19:42;2.70;99.90
42913;DHT22;50720;54.324;18.558;2022-12-07T07:22:13;2.70;99.90
42913;DHT22;50720;54.324;18.558;2022-12-07T07:24:43;2.60;99.90
42913;DHT22;50720;54.324;18.558;2022-12-07T07:27:12;2.70;99.90
42913;DHT22;50720;54.324;18.558;2022-12-07T07:29:42;2.60;99.90
42913;DHT22;50720;54.324;18.558;2022-12-07T07:32:11;2.60;99.90
42913;DHT22;50720;54.324;18.558;2022-12-07T07:34:41;2.50;99.90
42913;DHT22;50720;54.324;18.558;2022-12-07T07:37:10;2.50;99.90
42913;DHT22;50720;54.324;18.558;2022-12-07T07:39:50;2.50;99.90
42913;DHT22;50720;54.324;18.558;2022-12-07T07:42:19;2.50;99.90
42913;DHT22;50720;54.324;18.558;2022-12-07T07:44:49;2.40;99.90
42913;DHT22;50720;54.324;18.558;2022-12-07T07:47:18;2.50;99.90
42913;DHT22;50720;54.324;18.558;2022-12-07T07:49:48;2.40;99.90
42913;DHT22;50720;54.324;18.558;2022-12-07T07:52:17;2.50;99.90
42913;DHT22;50720;54.324;18.558;2022-12-07T07:54:47;2.40;99.90
42913;DHT22;50720;54.324;18.558;2022-12-07T07:57:18;2.50;99.90
42913;DHT22;50720;54.324;18.558;2022-12-07T07:59:48;2.50;99.90
42913;DHT22;50720;54.324;18.558;2022-12-07T08:02:18;2.50;99.90
42913;DHT22;50720;54.324;18.558;2022-12-07T08:04:48;2.60;99.90
42913;DHT22;50720;54.324;18.558;2022-12-07T08:07:18;2.60;99.90
42913;DHT22;50720;54.324;18.558;2022-12-07T08:09:48;2.70;99.90
42913;DHT22;50720;54.324;18.558;2022-12-07T08:12:19;2.80;99.90
42913;DHT22;50720;54.324;18.558;2022-12-07T08:14:49;2.90;99.90
42913;DHT22;50720;54.324;18.558;2022-12-07T08:17:18;2.90;99.90
42913;DHT22;50720;54.324;18.558;2022-12-07T08:19:50;3.00;99.90
42913;DHT22;50720;54.324;18.558;2022-12-07T08:22:20;3.00;99.90
42913;DHT22;50720;54.324;18.558;2022-12-07T08:24:50;3.10;99.90
42913;DHT22;50720;54.324;18.558;2022-12-07T08:27:21;3.10;99.90
42913;DHT22;50720;54.324;18.558;2022-12-07T08:29:54;3.10;99.90
42913;DHT22;50720;54.324;18.558;2022-12-07T08:32:24;3.10;99.90
42913;DHT22;50720;54.324;18.558;2022-12-07T08:34:55;3.00;99.90
42913;DHT22;50720;54.324;18.558;2022-12-07T08:37:24;3.10;99.90
42913;DHT22;50720;54.324;18.558;2022-12-07T08:39:54;3.10;99.90
42913;DHT22;50720;54.324;18.558;2022-12-07T08:42:25;3.00;99.90
42913;DHT22;50720;54.324;18.558;2022-12-07T08:44:58;3.10;99.90
42913;DHT22;50720;54.324;18.558;2022-12-07T08:47:27;3.10;99.90
42913;DHT22;50720;54.324;18.558;2022-12-07T08:49:57;3.10;99.90
42913;DHT22;50720;54.324;18.558;2022-12-07T08:52:32;3.00;99.90
42913;DHT22;50720;54.324;18.558;2022-12-07T08:55:02;3.00;99.90
42913;DHT22;50720;54.324;18.558;2022-12-07T08:57:34;3.00;99.90
42913;DHT22;50720;54.324;18.558;2022-12-07T09:00:05;3.00;99.90
42913;DHT22;50720;54.324;18.558;2022-12-07T09:02:36;3.00;99.90
42913;DHT22;50720;54.324;18.558;2022-12-07T09:05:07;3.00;99.90
42913;DHT22;50720;54.324;18.558;2022-12-07T09:07:43;3.00;99.90
42913;DHT22;50720;54.324;18.558;2022-12-07T09:10:14;2.90;99.90
42913;DHT22;50720;54.324;18.558;2022-12-07T09:12:45;3.00;99.90
42913;DHT22;50720;54.324;18.558;2022-12-07T09:15:15;2.90;99.90
42913;DHT22;50720;54.324;18.558;2022-12-07T09:17:44;2.90;99.90
42913;DHT22;50720;54.324;18.558;2022-12-07T09:20:15;3.00;99.90
42913;DHT22;50720;54.324;18.558;2022-12-07T09:22:46;2.90;99.90
42913;DHT22;50720;54.324;18.558;2022-12-07T09:25:16;2.90;99.90
42913;DHT22;50720;54.324;18.558;2022-12-07T09:27:47;2.90;99.90
42913;DHT22;50720;54.324;18.558;2022-12-07T09:30:17;2.90;99.90
42913;DHT22;50720;54.324;18.558;2022-12-07T09:32:47;2.90;99.90
42913;DHT22;50720;54.324;18.558;2022-12-07T09:35:16;3.00;99.90
42913;DHT22;50720;54.324;18.558;2022-12-07T09:37:46;3.00;99.90
42913;DHT22;50720;54.324;18.558;2022-12-07T09:40:18;2.90;99.90
42913;DHT22;50720;54.324;18.558;2022-12-07T09:42:52;3.00;99.90
42913;DHT22;50720;54.324;18.558;2022-12-07T09:45:26;2.90;99.90
42913;DHT22;50720;54.324;18.558;2022-12-07T09:47:57;3.00;99.90
42913;DHT22;50720;54.324;18.558;2022-12-07T09:50:28;2.90;99.90
42913;DHT22;50720;54.324;18.558;2022-12-07T09:53:07;2.90;99.90
42913;DHT22;50720;54.324;18.558;2022-12-07T09:55:38;2.90;99.90
42913;DHT22;50720;54.324;18.558;2022-12-07T09:58:19;3.00;99.90
42913;DHT22;50720;54.324;18.558;2022-12-07T10:00:51;2.90;99.90
42913;DHT22;50720;54.324;18.558;2022-12-07T10:03:22;2.90;99.90
42913;DHT22;50720;54.324;18.558;2022-12-07T10:05:52;3.00;99.90
42913;DHT22;50720;54.324;18.558;2022-12-07T10:08:22;3.00;99.90
42913;DHT22;50720;54.324;18.558;2022-12-07T10:10:55;3.00;99.90
42913;DHT22;50720;54.324;18.558;2022-12-07T10:13:37;3.00;99.90
42913;DHT22;50720;54.324;18.558;2022-12-07T10:16:30;2.90;99.90
42913;DHT22;50720;54.324;18.558;2022-12-07T10:19:18;2.90;99.90
42913;DHT22;50720;54.324;18.558;2022-12-07T10:22:00;2.90;99.90
42913;DHT22;50720;54.324;18.558;2022-12-07T10:24:30;2.80;99.90
42913;DHT22;50720;54.324;18.558;2022-12-07T10:27:00;2.80;99.90
42913;DHT22;50720;54.324;18.558;2022-12-07T10:29:33;2.90;99.90
42913;DHT22;50720;54.324;18.558;2022-12-07T10:32:08;2.90;99.90
42913;DHT22;50720;54.324;18.558;2022-12-07T10:35:22;2.90;99.90
42913;DHT22;50720;54.324;18.558;2022-12-07T10:37:53;2.90;99.90
42913;DHT22;50720;54.324;18.558;2022-12-07T10:40:24;2.90;99.90
42913;DHT22;50720;54.324;18.558;2022-12-07T10:43:02;2.80;99.90
42913;DHT22;50720;54.324;18.558;2022-12-07T10:45:35;2.80;99.90
42913;DHT22;50720;54.324;18.558;2022-12-07T10:48:35;2.80;99.90
42913;DHT22;50720;54.324;18.558;2022-12-07T10:51:13;2.90;99.90
42913;DHT22;50720;54.324;18.558;2022-12-07T10:53:56;2.90;99.90
42913;DHT22;50720;54.324;18.558;2022-12-07T10:56:55;2.90;99.90
42913;DHT22;50720;54.324;18.558;2022-12-07T10:59:47;2.90;99.90
42913;DHT22;50720;54.324;18.558;2022-12-07T11:02:30;2.90;99.90
42913;DHT22;50720;54.324;18.558;2022-12-07T11:05:15;3.00;99.90
42913;DHT22;50720;54.324;18.558;2022-12-07T11:07:54;3.00;99.90
42913;DHT22;50720;54.324;18.558;2022-12-07T11:10:30;2.90;99.90
42913;DHT22;50720;54.324;18.558;2022-12-07T11:13:26;2.90;99.90
42913;DHT22;50720;54.324;18.558;2022-12-07T11:16:23;2.90;99.90
42913;DHT22;50720;54.324;18.558;2022-12-07T11:19:11;2.90;99.90
42913;DHT22;50720;54.324;18.558;2022-12-07T11:21:48;2.90;99.90
42913;DHT22;50720;54.324;18.558;2022-12-07T11:24:25;2.70;99.90
42913;DHT22;50720;54.324;18.558;2022-12-07T11:27:07;2.70;99.90
42913;DHT22;50720;54.324;18.558;2022-12-07T11:29:52;2.70;99.90
42913;DHT22;50720;54.324;18.558;2022-12-07T11:32:40;2.70;99.90
42913;DHT22;50720;54.324;18.558;2022-12-07T11:35:22;2.70;99.90
42913;DHT22;50720;54.324;18.558;2022-12-07T11:37:59;2.70;99.90
42913;DHT22;50720;54.324;18.558;2022-12-07T11:40:31;2.70;99.90
42913;DHT22;50720;54.324;18.558;2022-12-07T11:43:09;2.70;99.90
42913;DHT22;50720;54.324;18.558;2022-12-07T11:45:43;2.80;99.90
42913;DHT22;50720;54.324;18.558;2022-12-07T11:48:19;2.70;99.90
42913;DHT22;50720;54.324;18.558;2022-12-07T11:50:55;2.60;99.90
42913;DHT22;50720;54.324;18.558;2022-12-07T11:53:33;2.60;99.90
42913;DHT22;50720;54.324;18.558;2022-12-07T11:56:09;2.60;99.90
42913;DHT22;50720;54.324;18.558;2022-12-07T11:58:46;2.60;99.90
42913;DHT22;50720;54.324;18.558;2022-12-07T12:01:31;2.50;99.90
42913;DHT22;50720;54.324;18.558;2022-12-07T12:04:13;2.60;99.90
42913;DHT22;50720;54.324;18.558;2022-12-07T12:06:47;2.50;99.90
42913;DHT22;50720;54.324;18.558;2022-12-07T12:09:21;2.50;99.90
42913;DHT22;50720;54.324;18.558;2022-12-07T12:12:21;2.40;99.90
42913;DHT22;50720;54.324;18.558;2022-12-07T12:15:27;2.30;99.90
42913;DHT22;50720;54.324;18.558;2022-12-07T12:20:57;2.40;99.90
42913;DHT22;50720;54.324;18.558;2022-12-07T12:23:36;2.40;99.90
42913;DHT22;50720;54.324;18.558;2022-12-07T12:26:16;2.40;99.90
42913;DHT22;50720;54.324;18.558;2022-12-07T12:28:53;2.40;99.90
42913;DHT22;50720;54.324;18.558;2022-12-07T12:31:38;2.40;99.90
42913;DHT22;50720;54.324;18.558;2022-12-07T12:34:30;2.40;99.90
42913;DHT22;50720;54.324;18.558;2022-12-07T12:37:00;2.50;99.90
42913;DHT22;50720;54.324;18.558;2022-12-07T12:39:31;2.60;99.90
42913;DHT22;50720;54.324;18.558;2022-12-07T12:42:01;2.50;99.90
42913;DHT22;50720;54.324;18.558;2022-12-07T12:48:01;2.60;99.90
42913;DHT22;50720;54.324;18.558;2022-12-07T12:50:33;2.50;99.90
42913;DHT22;50720;54.324;18.558;2022-12-07T12:53:14;2.60;99.90
42913;DHT22;50720;54.324;18.558;2022-12-07T12:58:39;2.50;99.90
42913;DHT22;50720;54.324;18.558;2022-12-07T13:04:40;2.50;99.90
42913;DHT22;50720;54.324;18.558;2022-12-07T13:07:50;2.50;99.90
42913;DHT22;50720;54.324;18.558;2022-12-07T13:10:25;2.50;99.90
42913;DHT22;50720;54.324;18.558;2022-12-07T13:12:59;2.50;99.90
42913;DHT22;50720;54.324;18.558;2022-12-07T13:15:35;2.50;99.90
42913;DHT22;50720;54.324;18.558;2022-12-07T13:18:24;2.50;99.90
42913;DHT22;50720;54.324;18.558;2022-12-07T13:20:56;2.50;99.90
42913;DHT22;50720;54.324;18.558;2022-12-07T13:23:30;2.50;99.90
42913;DHT22;50720;54.324;18.558;2022-12-07T13:26:16;2.50;99.90
42913;DHT22;50720;54.324;18.558;2022-12-07T13:28:47;2.50;99.90
42913;DHT22;50720;54.324;18.558;2022-12-07T13:31:38;2.50;99.90
42913;DHT22;50720;54.324;18.558;2022-12-07T13:34:29;2.50;99.90
42913;DHT22;50720;54.324;18.558;2022-12-07T13:37:00;2.50;99.90
42913;DHT22;50720;54.324;18.558;2022-12-07T13:39:32;2.50;99.90
42913;DHT22;50720;54.324;18.558;2022-12-07T13:42:18;2.50;99.90
42913;DHT22;50720;54.324;18.558;2022-12-07T13:44:48;2.50;99.90
42913;DHT22;50720;54.324;18.558;2022-12-07T13:47:23;2.50;99.90
42913;DHT22;50720;54.324;18.558;2022-12-07T13:49:55;2.50;99.90
42913;DHT22;50720;54.324;18.558;2022-12-07T13:52:27;2.40;99.90
42913;DHT22;50720;54.324;18.558;2022-12-07T13:54:58;2.40;99.90
42913;DHT22;50720;54.324;18.558;2022-12-07T13:57:32;2.40;99.90
42913;DHT22;50720;54.324;18.558;2022-12-07T14:00:04;2.40;99.90
42913;DHT22;50720;54.324;18.558;2022-12-07T14:02:36;2.40;99.90
42913;DHT22;50720;54.324;18.558;2022-12-07T14:05:16;2.40;99.90
42913;DHT22;50720;54.324;18.558;2022-12-07T14:07:55;2.30;99.90
42913;DHT22;50720;54.324;18.558;2022-12-07T14:10:26;2.30;99.90
42913;DHT22;50720;54.324;18.558;2022-12-07T14:12:58;2.30;99.90
42913;DHT22;50720;54.324;18.558;2022-12-07T14:15:30;2.30;99.90
42913;DHT22;50720;54.324;18.558;2022-12-07T14:18:03;2.30;99.90
42913;DHT22;50720;54.324;18.558;2022-12-07T14:20:34;2.20;99.90
42913;DHT22;50720;54.324;18.558;2022-12-07T14:23:21;2.20;99.90
42913;DHT22;50720;54.324;18.558;2022-12-07T14:25:53;2.20;99.90
42913;DHT22;50720;54.324;18.558;2022-12-07T14:28:26;2.20;99.90
42913;DHT22;50720;54.324;18.558;2022-12-07T14:30:56;2.20;99.90
42913;DHT22;50720;54.324;18.558;2022-12-07T14:33:28;2.20;99.90
42913;DHT22;50720;54.324;18.558;2022-12-07T14:35:57;2.20;99.90
42913;DHT22;50720;54.324;18.558;2022-12-07T14:38:28;2.20;99.90
42913;DHT22;50720;54.324;18.558;2022-12-07T14:40:57;2.20;99.90
42913;DHT22;50720;54.324;18.558;2022-12-07T14:43:48;2.20;99.90
42913;DHT22;50720;54.324;18.558;2022-12-07T14:46:37;2.20;99.90
42913;DHT22;50720;54.324;18.558;2022-12-07T14:49:08;2.20;99.90
42913;DHT22;50720;54.324;18.558;2022-12-07T14:51:58;2.20;99.90
42913;DHT22;50720;54.324;18.558;2022-12-07T14:54:49;2.20;99.90
42913;DHT22;50720;54.324;18.558;2022-12-07T14:57:18;2.20;99.90
42913;DHT22;50720;54.324;18.558;2022-12-07T14:59:48;2.20;99.90
42913;DHT22;50720;54.324;18.558;2022-12-07T15:02:18;2.30;99.90
42913;DHT22;50720;54.324;18.558;2022-12-07T15:04:50;2.20;99.90
42913;DHT22;50720;54.324;18.558;2022-12-07T15:07:20;2.20;99.90
42913;DHT22;50720;54.324;18.558;2022-12-07T15:09:51;2.20;99.90
42913;DHT22;50720;54.324;18.558;2022-12-07T15:12:20;2.20;99.90
42913;DHT22;50720;54.324;18.558;2022-12-07T15:14:49;2.20;99.90
42913;DHT22;50720;54.324;18.558;2022-12-07T15:17:19;2.20;99.90
42913;DHT22;50720;54.324;18.558;2022-12-07T15:20:00;2.10;99.90
42913;DHT22;50720;54.324;18.558;2022-12-07T15:22:29;2.10;99.90
42913;DHT22;50720;54.324;18.558;2022-12-07T15:25:05;2.10;99.90
42913;DHT22;50720;54.324;18.558;2022-12-07T15:27:35;2.10;99.90
42913;DHT22;50720;54.324;18.558;2022-12-07T15:30:06;2.10;99.90
42913;DHT22;50720;54.324;18.558;2022-12-07T15:32:35;2.10;99.90
42913;DHT22;50720;54.324;18.558;2022-12-07T15:35:09;2.10;99.90
42913;DHT22;50720;54.324;18.558;2022-12-07T15:37:38;2.10;99.90
42913;DHT22;50720;54.324;18.558;2022-12-07T15:40:09;2.10;99.90
42913;DHT22;50720;54.324;18.558;2022-12-07T15:42:39;2.10;99.90
42913;DHT22;50720;54.324;18.558;2022-12-07T15:45:10;2.10;99.90
42913;DHT22;50720;54.324;18.558;2022-12-07T15:47:42;2.10;99.90
42913;DHT22;50720;54.324;18.558;2022-12-07T15:50:35;2.10;99.90
42913;DHT22;50720;54.324;18.558;2022-12-07T15:53:04;2.10;99.90
42913;DHT22;50720;54.324;18.558;2022-12-07T15:55:34;2.10;99.90
42913;DHT22;50720;54.324;18.558;2022-12-07T15:58:03;2.00;99.90
42913;DHT22;50720;54.324;18.558;2022-12-07T16:00:34;2.00;99.90
42913;DHT22;50720;54.324;18.558;2022-12-07T16:03:03;2.00;99.90
42913;DHT22;50720;54.324;18.558;2022-12-07T16:05:35;2.00;99.90
42913;DHT22;50720;54.324;18.558;2022-12-07T16:08:05;2.00;99.90
42913;DHT22;50720;54.324;18.558;2022-12-07T16:10:34;2.00;99.90
42913;DHT22;50720;54.324;18.558;2022-12-07T16:13:04;2.10;99.90
42913;DHT22;50720;54.324;18.558;2022-12-07T16:15:38;2.10;99.90
42913;DHT22;50720;54.324;18.558;2022-12-07T16:18:08;2.10;99.90
42913;DHT22;50720;54.324;18.558;2022-12-07T16:20:40;2.10;99.90
42913;DHT22;50720;54.324;18.558;2022-12-07T16:23:09;2.00;99.90
42913;DHT22;50720;54.324;18.558;2022-12-07T16:25:39;2.00;99.90
42913;DHT22;50720;54.324;18.558;2022-12-07T16:28:09;2.10;99.90